Time;durP1;ratioP1;P1;durP2;ratioP2;P2;SDS_P1;SDS_P2;PMS_P1;PMS_P2;Temp;Humidity;BMP_temperature;BMP_pressure;BME280_temperature;BME280_humidity;BME280_pressure;Samples;Min_cycle;Max_cycle;Signal;HPM_P1;HPM_P2
2022/11/05 00:10:37;;;;;;;;;;;11.10;94.00;;;;;;4985838;28;20393;-73
2022/11/05 00:18:33;;;;;;;;;;;11.10;94.00;;;;;;4986868;28;19925;-72
2022/11/05 00:20:58;;;;;;;;;;;11.00;93.90;;;;;;4986450;28;19914;-72
2022/11/05 00:26:10;;;;;;;;;;;11.00;93.90;;;;;;4967432;28;20418;-73
2022/11/05 00:28:36;;;;;;;;;;;11.00;93.90;;;;;;4970492;28;19929;-72
2022/11/05 00:31:08;;;;;;;;;;;11.00;94.00;;;;;;4985000;28;20291;-73
2022/11/05 00:33:34;;;;;;;;;;;10.90;93.90;;;;;;4985785;28;20298;-73
2022/11/05 00:36:01;;;;;;;;;;;10.90;93.90;;;;;;4986651;28;19914;-73
2022/11/05 00:38:28;;;;;;;;;;;11.00;93.90;;;;;;4986489;28;19917;-73
2022/11/05 00:40:53;;;;;;;;;;;10.90;93.90;;;;;;4986867;28;19914;-73
2022/11/05 00:46:02;;;;;;;;;;;10.90;93.90;;;;;;4986169;28;19921;-72
2022/11/05 00:51:12;;;;;;;;;;;10.80;93.80;;;;;;4986181;28;19916;-73
2022/11/05 00:53:37;;;;;;;;;;;10.80;93.80;;;;;;4986668;28;19913;-73
2022/11/05 00:56:03;;;;;;;;;;;10.80;93.80;;;;;;4986302;28;19921;-72
2022/11/05 00:58:29;;;;;;;;;;;10.80;93.80;;;;;;4986445;28;19949;-72
2022/11/05 01:00:58;;;;;;;;;;;10.80;93.80;;;;;;4984094;28;19988;-73
2022/11/05 01:03:25;;;;;;;;;;;10.80;93.80;;;;;;4985906;28;19914;-73
2022/11/05 01:05:52;;;;;;;;;;;10.80;93.80;;;;;;4985619;28;19918;-73
2022/11/05 01:08:19;;;;;;;;;;;10.80;93.80;;;;;;4984668;28;20314;-73
2022/11/05 01:10:46;;;;;;;;;;;10.70;93.80;;;;;;4985773;28;19968;-72
2022/11/05 01:13:12;;;;;;;;;;;10.70;93.80;;;;;;4985991;28;19914;-73
2022/11/05 01:15:38;;;;;;;;;;;10.70;93.80;;;;;;4985918;28;19921;-73
2022/11/05 01:18:04;;;;;;;;;;;10.70;93.80;;;;;;4985772;28;19921;-72
2022/11/05 01:20:29;;;;;;;;;;;10.70;93.80;;;;;;4984931;28;20284;-73
2022/11/05 01:22:55;;;;;;;;;;;10.70;93.80;;;;;;4985438;28;20649;-73
2022/11/05 01:25:20;;;;;;;;;;;10.70;93.80;;;;;;4985940;28;20034;-73
2022/11/05 01:27:46;;;;;;;;;;;10.60;93.70;;;;;;4985669;28;20433;-72
2022/11/05 01:30:11;;;;;;;;;;;10.60;93.70;;;;;;4985378;28;19914;-72
2022/11/05 01:32:37;;;;;;;;;;;10.60;93.70;;;;;;4985564;28;19988;-72
2022/11/05 01:35:07;;;;;;;;;;;10.70;93.70;;;;;;4985388;28;19925;-73
2022/11/05 01:37:33;;;;;;;;;;;10.60;93.70;;;;;;4984823;28;19918;-73
2022/11/05 01:39:59;;;;;;;;;;;10.60;93.70;;;;;;4985536;28;19995;-73
2022/11/05 01:42:25;;;;;;;;;;;10.60;93.70;;;;;;4985985;28;20660;-72
2022/11/05 01:44:54;;;;;;;;;;;10.60;93.70;;;;;;4985771;28;19953;-72
2022/11/05 01:47:19;;;;;;;;;;;10.60;93.70;;;;;;4985679;28;19949;-73
2022/11/05 01:49:45;;;;;;;;;;;10.50;93.70;;;;;;4985038;28;19996;-72
2022/11/05 01:52:10;;;;;;;;;;;10.50;93.70;;;;;;4985626;28;20314;-72
2022/11/05 01:54:36;;;;;;;;;;;10.50;93.70;;;;;;4984961;28;20299;-73
2022/11/05 01:57:04;;;;;;;;;;;10.50;93.70;;;;;;4985637;28;19910;-72
2022/11/05 01:59:32;;;;;;;;;;;10.50;93.60;;;;;;4985421;28;19913;-73
2022/11/05 02:01:58;;;;;;;;;;;10.50;93.70;;;;;;4985370;28;19914;-72
2022/11/05 02:04:26;;;;;;;;;;;10.50;93.60;;;;;;4985228;28;19913;-72
2022/11/05 02:06:52;;;;;;;;;;;10.50;93.70;;;;;;4982612;28;19914;-73
2022/11/05 02:09:29;;;;;;;;;;;10.50;93.70;;;;;;4982660;28;19921;-72
2022/11/05 02:11:55;;;;;;;;;;;10.50;93.60;;;;;;4984913;28;19941;-73
2022/11/05 02:14:21;;;;;;;;;;;10.40;93.60;;;;;;4983458;28;19945;-72
2022/11/05 02:16:47;;;;;;;;;;;10.50;93.60;;;;;;4985068;28;20306;-73
2022/11/05 02:19:31;;;;;;;;;;;10.40;93.60;;;;;;4985449;28;20370;-72
2022/11/05 02:22:08;;;;;;;;;;;10.40;93.60;;;;;;4985102;28;20001;-72
2022/11/05 02:24:43;;;;;;;;;;;10.40;93.60;;;;;;4984769;28;19921;-72
2022/11/05 02:27:13;;;;;;;;;;;10.40;93.60;;;;;;4985064;28;19968;-72
2022/11/05 02:29:59;;;;;;;;;;;10.40;93.60;;;;;;4983459;28;20016;-72
2022/11/05 02:32:25;;;;;;;;;;;10.40;93.60;;;;;;4988701;28;19948;-73
2022/11/05 02:34:58;;;;;;;;;;;10.30;93.60;;;;;;4989018;28;19921;-72
2022/11/05 02:37:30;;;;;;;;;;;10.30;93.60;;;;;;5003294;28;19910;-72
2022/11/05 02:40:04;;;;;;;;;;;10.40;93.60;;;;;;4987779;28;20322;-72
2022/11/05 02:42:34;;;;;;;;;;;10.30;93.60;;;;;;4988081;28;19957;-72
2022/11/05 02:45:00;;;;;;;;;;;10.30;93.60;;;;;;4988879;28;19937;-72
2022/11/05 02:47:31;;;;;;;;;;;10.30;93.60;;;;;;4987586;28;19914;-73
2022/11/05 02:49:57;;;;;;;;;;;10.30;93.60;;;;;;4988762;28;20591;-72
2022/11/05 02:52:22;;;;;;;;;;;10.30;93.60;;;;;;4987552;28;19918;-73
2022/11/05 02:54:57;;;;;;;;;;;10.30;93.50;;;;;;4988221;28;19984;-73
2022/11/05 02:57:23;;;;;;;;;;;10.30;93.50;;;;;;4987967;28;19914;-72
2022/11/05 02:59:58;;;;;;;;;;;10.30;93.60;;;;;;4988011;28;20031;-72
2022/11/05 03:02:24;;;;;;;;;;;10.30;93.50;;;;;;4988709;28;19948;-72
2022/11/05 03:04:49;;;;;;;;;;;10.30;93.50;;;;;;4988676;28;19921;-72
2022/11/05 03:07:15;;;;;;;;;;;10.30;93.50;;;;;;4988488;28;19920;-71
2022/11/05 03:09:59;;;;;;;;;;;10.20;93.50;;;;;;4988109;28;20000;-72
2022/11/05 03:12:24;;;;;;;;;;;10.20;93.50;;;;;;4987674;28;19929;-72
2022/11/05 03:15:02;;;;;;;;;;;10.20;93.50;;;;;;4987863;28;19998;-72
2022/11/05 03:17:30;;;;;;;;;;;10.20;93.50;;;;;;4987821;28;19968;-72
2022/11/05 03:20:02;;;;;;;;;;;10.20;93.50;;;;;;4988031;28;20381;-72
2022/11/05 03:22:29;;;;;;;;;;;10.20;93.50;;;;;;4988228;28;19944;-72
2022/11/05 03:24:57;;;;;;;;;;;10.20;93.50;;;;;;4988151;28;19914;-72
2022/11/05 03:27:25;;;;;;;;;;;10.20;93.50;;;;;;4988111;28;20440;-72
2022/11/05 03:29:58;;;;;;;;;;;10.20;93.50;;;;;;4986559;28;19914;-72
2022/11/05 03:32:25;;;;;;;;;;;10.20;93.50;;;;;;4987942;28;19913;-72
2022/11/05 03:34:55;;;;;;;;;;;10.20;93.50;;;;;;4988001;28;19933;-72
2022/11/05 03:37:21;;;;;;;;;;;10.20;93.50;;;;;;4988022;28;20504;-72
2022/11/05 03:39:49;;;;;;;;;;;10.10;93.50;;;;;;4987348;28;20536;-72
2022/11/05 03:42:17;;;;;;;;;;;10.20;93.50;;;;;;4987198;28;20048;-72
2022/11/05 03:44:45;;;;;;;;;;;10.10;93.50;;;;;;4987129;28;20418;-72
2022/11/05 03:47:14;;;;;;;;;;;10.10;93.50;;;;;;4982749;28;20510;-73
2022/11/05 03:49:47;;;;;;;;;;;10.10;93.50;;;;;;4994020;28;19914;-72
2022/11/05 03:52:12;;;;;;;;;;;10.10;93.50;;;;;;4998110;28;20016;-72
2022/11/05 03:54:38;;;;;;;;;;;10.00;93.50;;;;;;5006855;28;19917;-72
2022/11/05 03:57:08;;;;;;;;;;;10.00;93.50;;;;;;5006847;28;19914;-72
2022/11/05 03:59:41;;;;;;;;;;;10.00;93.50;;;;;;4985533;28;19918;-72
2022/11/05 04:02:08;;;;;;;;;;;10.00;93.50;;;;;;4984815;28;19917;-73
2022/11/05 04:04:33;;;;;;;;;;;10.00;93.50;;;;;;4984382;28;19914;-73
2022/11/05 04:15:11;;;;;;;;;;;10.00;93.50;;;;;;4986772;28;19925;-73
2022/11/05 04:17:37;;;;;;;;;;;10.00;93.40;;;;;;4986684;28;19914;-72
2022/11/05 04:25:31;;;;;;;;;;;9.90;93.40;;;;;;4986789;28;19991;-73
2022/11/05 04:27:59;;;;;;;;;;;10.00;93.40;;;;;;4986834;28;19929;-73
2022/11/05 04:30:25;;;;;;;;;;;9.90;93.40;;;;;;4986368;28;20064;-72
2022/11/05 04:32:58;;;;;;;;;;;9.90;93.40;;;;;;4985948;28;20016;-72
2022/11/05 04:35:24;;;;;;;;;;;9.90;93.40;;;;;;4984483;28;20379;-71
2022/11/05 04:37:50;;;;;;;;;;;9.90;93.40;;;;;;4986484;28;19910;-72
2022/11/05 04:40:15;;;;;;;;;;;9.90;93.40;;;;;;4986704;28;19925;-72
2022/11/05 04:42:41;;;;;;;;;;;9.90;93.40;;;;;;4986364;28;19925;-72
2022/11/05 04:45:06;;;;;;;;;;;9.90;93.40;;;;;;4986620;28;20628;-72
2022/11/05 04:47:32;;;;;;;;;;;9.90;93.40;;;;;;4986523;28;19914;-73
2022/11/05 04:49:57;;;;;;;;;;;9.90;93.40;;;;;;4985122;28;19972;-72
2022/11/05 04:52:23;;;;;;;;;;;9.90;93.40;;;;;;4986181;28;20323;-72
2022/11/05 04:54:48;;;;;;;;;;;9.80;93.40;;;;;;4985727;28;19918;-72
2022/11/05 04:57:14;;;;;;;;;;;9.80;93.40;;;;;;4986382;28;19917;-73
2022/11/05 04:59:40;;;;;;;;;;;9.80;93.30;;;;;;4984747;28;19910;-72
2022/11/05 05:02:05;;;;;;;;;;;9.80;93.30;;;;;;4986296;28;19914;-71
2022/11/05 05:04:31;;;;;;;;;;;9.80;93.30;;;;;;4986083;28;19984;-72
2022/11/05 05:06:56;;;;;;;;;;;9.80;93.30;;;;;;4985502;28;19918;-72
2022/11/05 05:09:22;;;;;;;;;;;9.80;93.30;;;;;;4985732;28;19921;-72
2022/11/05 05:11:47;;;;;;;;;;;9.80;93.30;;;;;;4986126;28;19941;-73
2022/11/05 05:14:12;;;;;;;;;;;9.80;93.30;;;;;;4985901;28;19936;-72
2022/11/05 05:16:38;;;;;;;;;;;9.80;93.30;;;;;;4986074;28;20005;-72
2022/11/05 05:19:03;;;;;;;;;;;9.70;93.30;;;;;;4986179;28;19914;-72
2022/11/05 05:21:38;;;;;;;;;;;9.70;93.30;;;;;;4985541;28;19913;-72
2022/11/05 05:24:04;;;;;;;;;;;9.70;93.30;;;;;;4985338;28;19918;-72
2022/11/05 05:26:30;;;;;;;;;;;9.70;93.30;;;;;;4985778;28;20008;-73
2022/11/05 05:28:55;;;;;;;;;;;9.70;93.20;;;;;;4986189;28;20443;-73
2022/11/05 05:31:21;;;;;;;;;;;9.70;93.30;;;;;;4985769;28;19914;-73
2022/11/05 05:33:47;;;;;;;;;;;9.70;93.30;;;;;;4985764;28;20018;-72
2022/11/05 05:36:12;;;;;;;;;;;9.60;93.20;;;;;;4985794;28;20472;-72
2022/11/05 05:38:38;;;;;;;;;;;9.70;93.20;;;;;;4985061;28;20684;-72
2022/11/05 05:41:03;;;;;;;;;;;9.60;93.20;;;;;;4985083;28;20396;-73
2022/11/05 05:43:30;;;;;;;;;;;9.70;93.20;;;;;;4985783;28;19921;-72
2022/11/05 05:45:56;;;;;;;;;;;9.60;93.20;;;;;;4985806;28;20363;-72
2022/11/05 05:48:22;;;;;;;;;;;9.60;93.20;;;;;;4984628;28;20412;-72
2022/11/05 05:50:47;;;;;;;;;;;9.60;93.20;;;;;;4984718;28;19972;-73
2022/11/05 05:53:13;;;;;;;;;;;9.60;93.50;;;;;;4985587;28;19914;-72
2022/11/05 05:55:38;;;;;;;;;;;9.60;93.20;;;;;;4984097;28;19975;-73
2022/11/05 05:58:04;;;;;;;;;;;9.60;93.20;;;;;;4985649;28;20459;-73
2022/11/05 06:00:29;;;;;;;;;;;9.60;93.20;;;;;;4985206;28;19945;-73
2022/11/05 06:02:55;;;;;;;;;;;9.60;93.20;;;;;;4985473;28;19914;-72
2022/11/05 06:05:20;;;;;;;;;;;9.50;93.10;;;;;;4984306;28;19918;-72
2022/11/05 06:07:53;;;;;;;;;;;9.50;93.10;;;;;;4986612;28;19913;-72
2022/11/05 06:10:18;;;;;;;;;;;9.50;93.10;;;;;;4988796;28;19921;-72
2022/11/05 06:12:44;;;;;;;;;;;9.50;93.10;;;;;;4988307;28;19921;-72
2022/11/05 06:15:09;;;;;;;;;;;9.50;93.10;;;;;;4988102;28;20363;-73
2022/11/05 06:17:35;;;;;;;;;;;9.50;93.10;;;;;;4989568;28;19918;-73
2022/11/05 06:20:00;;;;;;;;;;;9.50;93.10;;;;;;4989056;28;20387;-72
2022/11/05 06:22:26;;;;;;;;;;;9.40;93.10;;;;;;4989339;28;19961;-72
2022/11/05 06:24:51;;;;;;;;;;;9.40;93.10;;;;;;4988860;28;19988;-72
2022/11/05 06:27:17;;;;;;;;;;;9.40;93.10;;;;;;4988721;28;19961;-73
2022/11/05 06:29:42;;;;;;;;;;;9.40;93.10;;;;;;4987534;28;19920;-72
2022/11/05 06:32:08;;;;;;;;;;;9.40;93.10;;;;;;4989418;28;20403;-72
2022/11/05 06:34:35;;;;;;;;;;;9.40;93.10;;;;;;4988867;28;19914;-72
2022/11/05 06:37:01;;;;;;;;;;;9.40;93.10;;;;;;4988588;28;20294;-71
2022/11/05 06:39:26;;;;;;;;;;;9.40;93.10;;;;;;4987364;28;19921;-73
2022/11/05 06:41:52;;;;;;;;;;;9.40;93.10;;;;;;4988570;28;20000;-72
2022/11/05 06:44:17;;;;;;;;;;;9.40;93.10;;;;;;4987934;28;19948;-72
2022/11/05 06:46:43;;;;;;;;;;;9.40;93.10;;;;;;4988844;28;19940;-72
2022/11/05 06:49:08;;;;;;;;;;;9.40;93.00;;;;;;4988708;28;19913;-72
2022/11/05 06:51:33;;;;;;;;;;;9.40;93.10;;;;;;4988301;28;19992;-72
2022/11/05 06:53:59;;;;;;;;;;;9.40;93.10;;;;;;4988095;28;19943;-72
2022/11/05 06:56:25;;;;;;;;;;;9.40;93.10;;;;;;4987867;28;19917;-72
2022/11/05 06:58:50;;;;;;;;;;;9.40;93.10;;;;;;4986820;28;19921;-72
2022/11/05 07:01:16;;;;;;;;;;;9.40;93.10;;;;;;4987068;28;19917;-72
2022/11/05 07:03:43;;;;;;;;;;;9.40;93.10;;;;;;4987288;28;19968;-72
2022/11/05 07:06:09;;;;;;;;;;;9.40;93.10;;;;;;4987822;28;19913;-72
2022/11/05 07:08:35;;;;;;;;;;;9.40;93.10;;;;;;4987362;28;19988;-72
2022/11/05 07:11:00;;;;;;;;;;;9.40;93.10;;;;;;4987378;28;19922;-72
2022/11/05 07:13:26;;;;;;;;;;;9.40;93.10;;;;;;4986709;28;20096;-72
2022/11/05 07:15:51;;;;;;;;;;;9.30;93.00;;;;;;4987223;28;19918;-72
2022/11/05 07:18:17;;;;;;;;;;;9.40;93.10;;;;;;4986004;28;19918;-72
2022/11/05 07:20:42;;;;;;;;;;;9.40;93.10;;;;;;4986357;28;20744;-73
2022/11/05 07:23:11;;;;;;;;;;;9.40;93.10;;;;;;4987305;28;19914;-72
2022/11/05 07:25:37;;;;;;;;;;;9.40;93.10;;;;;;4987151;28;19949;-72
2022/11/05 07:28:03;;;;;;;;;;;9.40;93.10;;;;;;4987067;28;19953;-72
2022/11/05 07:30:29;;;;;;;;;;;9.40;93.10;;;;;;4985903;28;20552;-72
2022/11/05 07:32:54;;;;;;;;;;;9.40;93.10;;;;;;4987004;28;19913;-73
2022/11/05 07:35:20;;;;;;;;;;;9.30;93.10;;;;;;4986813;28;19921;-72
2022/11/05 07:37:47;;;;;;;;;;;9.40;93.10;;;;;;4986560;28;19914;-73
2022/11/05 07:40:13;;;;;;;;;;;9.40;93.10;;;;;;4986626;28;20617;-72
2022/11/05 07:42:42;;;;;;;;;;;9.40;93.10;;;;;;4987135;28;20057;-72
2022/11/05 07:45:08;;;;;;;;;;;9.40;93.10;;;;;;4986695;28;19928;-72
2022/11/05 07:47:35;;;;;;;;;;;9.40;93.10;;;;;;4986383;28;20440;-72
2022/11/05 07:50:01;;;;;;;;;;;9.40;93.20;;;;;;4985568;28;19960;-72
2022/11/05 07:52:26;;;;;;;;;;;9.40;93.10;;;;;;4986350;28;19953;-72
2022/11/05 07:54:52;;;;;;;;;;;9.40;93.20;;;;;;4986181;28;20366;-72
2022/11/05 07:57:17;;;;;;;;;;;9.40;93.20;;;;;;4986703;28;19949;-72
2022/11/05 07:59:42;;;;;;;;;;;9.40;93.20;;;;;;4986422;28;19913;-72
2022/11/05 08:02:09;;;;;;;;;;;9.40;93.20;;;;;;4986322;28;19949;-72
2022/11/05 08:04:34;;;;;;;;;;;9.40;93.10;;;;;;4986557;28;20379;-72
2022/11/05 08:06:59;;;;;;;;;;;9.40;93.20;;;;;;4985933;28;19917;-72
2022/11/05 08:09:25;;;;;;;;;;;9.40;93.20;;;;;;4986589;28;19921;-72
2022/11/05 08:11:50;;;;;;;;;;;9.40;93.20;;;;;;4978585;28;19914;-72
2022/11/05 08:14:16;;;;;;;;;;;9.50;93.20;;;;;;4987082;28;19928;-73
2022/11/05 08:16:41;;;;;;;;;;;9.50;93.20;;;;;;4986434;28;20382;-72
2022/11/05 08:19:07;;;;;;;;;;;9.50;93.20;;;;;;4985290;28;19952;-72
2022/11/05 08:21:32;;;;;;;;;;;9.50;93.20;;;;;;5001196;28;20016;-72
2022/11/05 08:23:58;;;;;;;;;;;9.50;93.20;;;;;;4986705;28;19948;-72
2022/11/05 08:26:23;;;;;;;;;;;9.50;93.20;;;;;;4986881;28;19914;-72
2022/11/05 08:28:49;;;;;;;;;;;9.50;93.20;;;;;;4986540;28;20017;-72
2022/11/05 08:31:16;;;;;;;;;;;9.50;93.20;;;;;;4986657;28;19921;-73
2022/11/05 08:33:42;;;;;;;;;;;9.50;93.20;;;;;;4986795;28;19961;-72
2022/11/05 08:36:07;;;;;;;;;;;9.50;93.20;;;;;;4986628;28;19960;-72
2022/11/05 08:38:33;;;;;;;;;;;9.50;93.20;;;;;;4986680;28;19921;-73
2022/11/05 08:40:59;;;;;;;;;;;9.50;93.20;;;;;;4985266;28;20278;-72
2022/11/05 08:43:24;;;;;;;;;;;9.60;93.20;;;;;;4984521;28;20363;-72
2022/11/05 08:45:50;;;;;;;;;;;9.60;93.20;;;;;;4985243;28;19921;-72
2022/11/05 08:48:16;;;;;;;;;;;9.60;93.20;;;;;;4986151;28;19914;-73
2022/11/05 08:50:42;;;;;;;;;;;9.60;93.20;;;;;;4991593;28;19918;-73
2022/11/05 08:53:08;;;;;;;;;;;9.60;93.20;;;;;;4995603;28;19913;-73
2022/11/05 08:55:34;;;;;;;;;;;9.60;93.20;;;;;;4999414;28;20528;-73
2022/11/05 08:58:01;;;;;;;;;;;9.60;93.20;;;;;;4990149;28;19925;-72
2022/11/05 09:00:28;;;;;;;;;;;9.60;93.10;;;;;;4985515;28;19917;-72
2022/11/05 09:02:54;;;;;;;;;;;9.60;93.20;;;;;;4986277;28;19914;-73
2022/11/05 09:05:19;;;;;;;;;;;9.60;93.10;;;;;;4986207;28;19914;-73
2022/11/05 09:07:48;;;;;;;;;;;9.70;93.20;;;;;;4985944;28;20000;-72
2022/11/05 09:10:13;;;;;;;;;;;9.70;93.20;;;;;;4985071;28;20638;-73
2022/11/05 09:12:39;;;;;;;;;;;9.70;93.20;;;;;;4984892;28;19963;-72
2022/11/05 09:15:05;;;;;;;;;;;9.60;93.10;;;;;;4984011;28;19921;-72
2022/11/05 09:17:30;;;;;;;;;;;9.70;93.10;;;;;;4985459;28;20646;-72
2022/11/05 09:19:55;;;;;;;;;;;9.70;93.10;;;;;;4985717;28;19914;-72
2022/11/05 09:22:21;;;;;;;;;;;9.70;93.40;;;;;;4986023;28;19910;-73
2022/11/05 09:24:46;;;;;;;;;;;9.70;93.10;;;;;;4986076;28;19975;-72
2022/11/05 09:27:13;;;;;;;;;;;9.70;93.10;;;;;;4985997;28;19921;-72
2022/11/05 09:29:39;;;;;;;;;;;9.70;93.10;;;;;;4985750;28;20474;-73
2022/11/05 09:32:05;;;;;;;;;;;9.80;93.10;;;;;;4985862;28;20020;-72
2022/11/05 09:34:30;;;;;;;;;;;9.80;93.10;;;;;;4985583;28;20060;-72
2022/11/05 09:36:56;;;;;;;;;;;9.80;93.10;;;;;;4984399;28;19928;-72
2022/11/05 09:39:21;;;;;;;;;;;9.80;93.10;;;;;;4985450;28;19914;-72
2022/11/05 09:41:48;;;;;;;;;;;9.80;93.10;;;;;;4990925;28;19913;-72
2022/11/05 09:44:16;;;;;;;;;;;9.80;93.10;;;;;;4992256;28;20585;-71
2022/11/05 09:46:46;;;;;;;;;;;9.80;93.00;;;;;;4991689;28;19929;-72
2022/11/05 09:49:21;;;;;;;;;;;9.80;93.10;;;;;;4989362;28;20459;-72
2022/11/05 09:51:46;;;;;;;;;;;9.80;93.10;;;;;;4998441;28;19917;-72
2022/11/05 09:54:13;;;;;;;;;;;9.80;93.10;;;;;;5010572;28;19924;-72
2022/11/05 09:56:39;;;;;;;;;;;9.90;93.10;;;;;;5011304;28;20302;-72
2022/11/05 09:59:10;;;;;;;;;;;9.90;93.10;;;;;;5003914;28;19918;-72
2022/11/05 10:01:36;;;;;;;;;;;9.90;93.10;;;;;;4980034;28;19921;-72
2022/11/05 10:04:07;;;;;;;;;;;9.90;93.10;;;;;;4992402;28;19914;-72
2022/11/05 10:06:33;;;;;;;;;;;9.90;93.00;;;;;;4987278;28;19921;-72
2022/11/05 10:09:00;;;;;;;;;;;9.90;93.10;;;;;;4991828;28;19918;-72
2022/11/05 10:11:45;;;;;;;;;;;9.90;93.10;;;;;;4991830;28;19956;-72
2022/11/05 10:14:20;;;;;;;;;;;10.00;93.10;;;;;;4992117;28;19965;-72
2022/11/05 10:16:50;;;;;;;;;;;10.00;93.10;;;;;;4991821;28;20658;-72
2022/11/05 10:19:23;;;;;;;;;;;10.00;93.00;;;;;;4991925;28;19928;-72
2022/11/05 10:21:49;;;;;;;;;;;10.00;93.00;;;;;;4990593;28;20058;-72
2022/11/05 10:24:16;;;;;;;;;;;10.10;93.00;;;;;;4990698;28;19910;-72
2022/11/05 10:26:42;;;;;;;;;;;10.00;93.00;;;;;;4989128;28;19927;-72
2022/11/05 10:29:10;;;;;;;;;;;10.10;93.00;;;;;;4991800;28;20345;-72
2022/11/05 10:31:36;;;;;;;;;;;10.10;93.00;;;;;;4999779;28;19961;-72
2022/11/05 10:34:04;;;;;;;;;;;10.10;92.90;;;;;;5009826;28;20058;-72
2022/11/05 10:36:38;;;;;;;;;;;10.20;92.90;;;;;;5010649;28;19979;-72
2022/11/05 10:39:09;;;;;;;;;;;10.20;92.90;;;;;;5011097;28;20268;-73
2022/11/05 10:41:54;;;;;;;;;;;10.20;92.90;;;;;;5009438;28;19913;-73
2022/11/05 10:44:22;;;;;;;;;;;10.20;93.00;;;;;;4990846;28;19913;-73
2022/11/05 10:46:53;;;;;;;;;;;10.20;93.00;;;;;;4991253;28;19918;-72
2022/11/05 10:49:29;;;;;;;;;;;10.30;93.00;;;;;;4991274;28;19914;-73
2022/11/05 10:51:56;;;;;;;;;;;10.30;92.90;;;;;;4971411;28;19914;-73
2022/11/05 10:54:23;;;;;;;;;;;10.40;92.90;;;;;;4983842;28;19918;-72
2022/11/05 10:56:49;;;;;;;;;;;10.40;92.80;;;;;;4969074;28;19914;-73
2022/11/05 10:59:28;;;;;;;;;;;10.40;92.80;;;;;;4977918;28;19920;-73
2022/11/05 11:02:01;;;;;;;;;;;10.40;92.80;;;;;;4968905;28;20316;-72
2022/11/05 11:04:28;;;;;;;;;;;10.50;92.80;;;;;;4986884;28;19918;-72
2022/11/05 11:06:54;;;;;;;;;;;10.50;92.70;;;;;;4988375;28;19910;-72
2022/11/05 11:09:23;;;;;;;;;;;10.50;92.70;;;;;;4987788;28;19922;-72
2022/11/05 11:11:58;;;;;;;;;;;10.50;92.70;;;;;;4988203;28;19913;-73
2022/11/05 11:14:23;;;;;;;;;;;10.60;92.70;;;;;;4988157;28;19933;-72
2022/11/05 11:16:50;;;;;;;;;;;10.60;92.60;;;;;;4987204;28;19917;-73
2022/11/05 11:19:21;;;;;;;;;;;10.70;92.60;;;;;;4986976;28;19959;-72
2022/11/05 11:22:08;;;;;;;;;;;10.70;92.60;;;;;;4987933;28;19925;-73
2022/11/05 11:24:52;;;;;;;;;;;10.70;92.50;;;;;;4987631;28;19933;-73
2022/11/05 11:27:18;;;;;;;;;;;10.70;92.60;;;;;;4988087;28;19913;-73
2022/11/05 11:29:46;;;;;;;;;;;10.80;92.60;;;;;;4987476;28;19968;-73
2022/11/05 11:32:14;;;;;;;;;;;10.90;92.70;;;;;;4987796;28;19914;-72
2022/11/05 11:34:41;;;;;;;;;;;10.80;92.70;;;;;;4987558;28;19929;-73
2022/11/05 11:37:12;;;;;;;;;;;10.90;92.60;;;;;;4987136;28;19917;-73
2022/11/05 11:39:37;;;;;;;;;;;11.00;92.60;;;;;;4987195;28;20000;-73
2022/11/05 11:42:08;;;;;;;;;;;11.00;92.50;;;;;;4987497;28;19914;-73
2022/11/05 11:44:38;;;;;;;;;;;11.00;92.50;;;;;;4985378;28;20046;-73
2022/11/05 11:47:08;;;;;;;;;;;11.00;92.80;;;;;;4986957;28;19910;-73
2022/11/05 11:49:36;;;;;;;;;;;11.10;92.60;;;;;;4985117;28;20467;-73
2022/11/05 11:52:03;;;;;;;;;;;11.10;92.60;;;;;;4986525;28;19949;-73
2022/11/05 11:54:29;;;;;;;;;;;11.10;92.50;;;;;;4986908;28;19914;-73
2022/11/05 11:56:55;;;;;;;;;;;11.20;92.50;;;;;;4986915;28;19920;-73
2022/11/05 11:59:24;;;;;;;;;;;11.30;92.50;;;;;;4986626;28;19913;-73
2022/11/05 12:02:05;;;;;;;;;;;11.30;92.40;;;;;;4967094;28;19918;-73
2022/11/05 12:04:49;;;;;;;;;;;11.40;92.30;;;;;;4966547;28;19914;-73
2022/11/05 12:07:15;;;;;;;;;;;11.40;92.40;;;;;;4974576;28;20737;-73
2022/11/05 12:10:06;;;;;;;;;;;11.40;92.40;;;;;;4985468;28;19921;-73
2022/11/05 12:12:47;;;;;;;;;;;11.40;92.20;;;;;;4978947;28;19924;-73
2022/11/05 12:15:31;;;;;;;;;;;11.50;92.20;;;;;;4992223;28;19925;-73
2022/11/05 12:18:02;;;;;;;;;;;11.50;92.30;;;;;;4985968;28;20001;-73
2022/11/05 12:20:33;;;;;;;;;;;11.50;92.20;;;;;;4985481;28;19923;-73
2022/11/05 12:23:14;;;;;;;;;;;11.50;92.40;;;;;;4986471;28;19972;-73
2022/11/05 12:25:39;;;;;;;;;;;11.50;92.40;;;;;;4966493;28;19956;-73
2022/11/05 12:28:17;;;;;;;;;;;11.50;92.30;;;;;;4966533;28;20517;-73
2022/11/05 12:30:48;;;;;;;;;;;11.50;92.30;;;;;;4977541;28;20307;-73
2022/11/05 12:33:14;;;;;;;;;;;11.60;92.30;;;;;;4986219;28;20385;-73
2022/11/05 12:35:56;;;;;;;;;;;11.60;92.30;;;;;;4985607;28;19918;-73
2022/11/05 12:38:40;;;;;;;;;;;11.60;92.30;;;;;;4985432;28;19913;-73
2022/11/05 12:41:11;;;;;;;;;;;11.60;92.30;;;;;;4985339;28;19918;-73
2022/11/05 12:43:36;;;;;;;;;;;11.60;92.20;;;;;;4985844;28;19924;-73
2022/11/05 12:46:08;;;;;;;;;;;11.70;92.30;;;;;;4985433;28;19917;-73
2022/11/05 12:48:45;;;;;;;;;;;11.70;92.20;;;;;;4984947;28;19980;-73
2022/11/05 12:51:30;;;;;;;;;;;11.70;92.20;;;;;;4983984;28;19920;-73
2022/11/05 12:54:15;;;;;;;;;;;11.80;92.20;;;;;;4994370;28;19963;-73
2022/11/05 12:56:46;;;;;;;;;;;11.80;92.20;;;;;;4984210;28;20060;-73
2022/11/05 12:59:11;;;;;;;;;;;11.80;92.20;;;;;;4985461;28;19914;-73
2022/11/05 13:01:40;;;;;;;;;;;11.80;92.20;;;;;;4985646;28;20550;-73
2022/11/05 13:04:12;;;;;;;;;;;11.80;92.20;;;;;;4986101;28;19960;-73
2022/11/05 13:06:43;;;;;;;;;;;11.80;92.20;;;;;;4985647;28;19924;-73
2022/11/05 13:09:17;;;;;;;;;;;11.80;92.20;;;;;;4989105;28;19921;-72
2022/11/05 13:11:45;;;;;;;;;;;11.80;92.30;;;;;;5001833;28;19918;-73
2022/11/05 13:14:20;;;;;;;;;;;11.80;92.20;;;;;;4984082;28;20032;-73
2022/11/05 13:16:52;;;;;;;;;;;11.90;92.30;;;;;;4984584;28;19972;-73
2022/11/05 13:19:17;;;;;;;;;;;11.90;92.20;;;;;;4985793;28;20290;-73
2022/11/05 13:21:44;;;;;;;;;;;11.90;92.20;;;;;;4985965;28;19938;-73
2022/11/05 13:24:13;;;;;;;;;;;11.90;92.20;;;;;;4985577;28;19921;-73
2022/11/05 13:26:44;;;;;;;;;;;11.90;92.20;;;;;;4986062;28;20279;-73
2022/11/05 13:29:15;;;;;;;;;;;11.90;92.20;;;;;;4985767;28;20691;-73
2022/11/05 13:31:45;;;;;;;;;;;12.00;92.20;;;;;;4985927;28;19917;-73
2022/11/05 13:34:11;;;;;;;;;;;12.00;92.40;;;;;;4986148;28;19968;-73
2022/11/05 13:39:23;;;;;;;;;;;12.00;92.20;;;;;;4983563;28;20532;-73
2022/11/05 13:42:07;;;;;;;;;;;12.00;92.20;;;;;;4996903;28;20540;-74
2022/11/05 13:44:53;;;;;;;;;;;12.00;92.20;;;;;;4988223;28;19926;-73
2022/11/05 13:47:37;;;;;;;;;;;12.00;92.30;;;;;;4984010;28;19943;-73
2022/11/05 13:50:09;;;;;;;;;;;12.00;92.30;;;;;;4985767;28;19926;-73
2022/11/05 13:52:40;;;;;;;;;;;12.00;92.30;;;;;;4985787;28;19953;-74
2022/11/05 13:55:21;;;;;;;;;;;12.00;92.30;;;;;;4985837;28;19932;-73
2022/11/05 13:57:46;;;;;;;;;;;12.00;92.20;;;;;;4980342;28;20794;-73
2022/11/05 14:00:17;;;;;;;;;;;12.00;92.20;;;;;;4981090;28;19918;-73
2022/11/05 14:02:48;;;;;;;;;;;12.00;92.30;;;;;;4981045;28;20100;-74
2022/11/05 14:05:28;;;;;;;;;;;12.00;92.40;;;;;;4987650;28;20414;-73
2022/11/05 14:07:54;;;;;;;;;;;12.00;92.40;;;;;;4990279;28;20425;-73
2022/11/05 14:10:36;;;;;;;;;;;12.00;92.40;;;;;;4984332;28;19922;-73
2022/11/05 14:13:16;;;;;;;;;;;12.00;92.40;;;;;;4975924;28;19918;-73
2022/11/05 14:15:52;;;;;;;;;;;12.00;92.50;;;;;;4980729;28;19952;-73
2022/11/05 14:18:38;;;;;;;;;;;12.00;92.50;;;;;;4977386;28;20040;-74
2022/11/05 14:21:05;;;;;;;;;;;11.90;92.50;;;;;;4981442;28;19929;-73
2022/11/05 14:23:38;;;;;;;;;;;11.90;92.50;;;;;;4979567;28;19940;-73
2022/11/05 14:26:14;;;;;;;;;;;11.90;92.60;;;;;;4982823;28;19918;-73
2022/11/05 14:28:39;;;;;;;;;;;11.90;92.50;;;;;;4985486;28;20000;-73
2022/11/05 14:31:17;;;;;;;;;;;11.90;92.50;;;;;;4980615;28;19936;-74
2022/11/05 14:34:01;;;;;;;;;;;11.90;92.40;;;;;;4985370;28;19975;-73
2022/11/05 14:36:32;;;;;;;;;;;11.90;92.50;;;;;;4985532;28;19922;-73
2022/11/05 14:39:01;;;;;;;;;;;11.90;92.50;;;;;;4986599;28;19918;-73
2022/11/05 14:41:27;;;;;;;;;;;11.80;92.40;;;;;;4989912;28;19937;-73
2022/11/05 14:43:56;;;;;;;;;;;11.80;92.60;;;;;;4987488;28;19918;-73
2022/11/05 14:46:22;;;;;;;;;;;11.80;92.60;;;;;;4985413;28;20651;-73
2022/11/05 14:48:52;;;;;;;;;;;11.80;92.60;;;;;;4988025;28;20021;-73
2022/11/05 14:51:21;;;;;;;;;;;11.80;92.70;;;;;;4989070;28;19976;-74
2022/11/05 14:53:46;;;;;;;;;;;11.80;92.70;;;;;;4992795;28;19924;-73
2022/11/05 14:56:13;;;;;;;;;;;11.80;92.70;;;;;;4992673;28;20282;-74
2022/11/05 14:58:40;;;;;;;;;;;11.70;92.70;;;;;;4989792;28;20033;-74
2022/11/05 15:01:07;;;;;;;;;;;11.70;92.70;;;;;;4981268;28;19922;-74
2022/11/05 15:03:32;;;;;;;;;;;11.70;92.70;;;;;;4994782;28;20000;-74
2022/11/05 15:06:16;;;;;;;;;;;11.70;92.70;;;;;;4991793;28;20004;-74
2022/11/05 15:08:48;;;;;;;;;;;11.70;92.80;;;;;;4982956;28;19922;-74